Time;durP1;ratioP1;P1;durP2;ratioP2;P2;SDS_P1;SDS_P2;PMS_P1;PMS_P2;Temp;Humidity;BMP_temperature;BMP_pressure;BME280_temperature;BME280_humidity;BME280_pressure;Samples;Min_cycle;Max_cycle;Signal;HPM_P1;HPM_P2
2024/03/14 00:02:11;;;;;;;10.53;7.23;;;10.10;17.70;;;;;;7376680;19;20027;-71
2024/03/14 00:04:42;;;;;;;10.65;7.22;;;10.10;19.80;;;;;;7377156;19;20015;-71
2024/03/14 00:07:14;;;;;;;9.02;6.93;;;10.10;20.10;;;;;;7377109;19;20454;-71
2024/03/14 00:09:45;;;;;;;10.65;7.65;;;10.20;19.80;;;;;;7376467;19;20014;-72
2024/03/14 00:12:18;;;;;;;10.63;6.88;;;10.20;17.00;;;;;;7377794;19;20066;-70
2024/03/14 00:14:50;;;;;;;11.07;7.35;;;10.20;16.30;;;;;;7377705;19;20006;-71
2024/03/14 00:17:21;;;;;;;10.52;7.22;;;10.10;18.70;;;;;;7376108;19;20007;-72
2024/03/14 00:19:54;;;;;;;10.00;7.50;;;10.10;19.10;;;;;;7377348;19;20013;-71
2024/03/14 00:22:24;;;;;;;10.50;7.88;;;10.10;21.50;;;;;;7376726;19;20018;-70
2024/03/14 00:24:55;;;;;;;9.65;7.13;;;10.10;23.20;;;;;;7375751;19;20011;-72
2024/03/14 00:27:28;;;;;;;12.05;7.88;;;10.10;26.50;;;;;;7376600;19;20021;-71
2024/03/14 00:29:58;;;;;;;12.13;7.35;;;10.10;28.60;;;;;;7377380;19;20022;-70
2024/03/14 00:32:30;;;;;;;12.82;8.55;;;10.10;33.50;;;;;;7376841;19;20018;-71
2024/03/14 00:35:02;;;;;;;9.98;7.75;;;10.00;35.00;;;;;;7375531;19;20058;-71
2024/03/14 00:37:33;;;;;;;11.25;7.97;;;10.00;39.50;;;;;;7377089;19;20023;-70
2024/03/14 00:40:04;;;;;;;12.20;8.20;;;10.00;43.10;;;;;;7377358;19;20429;-71
2024/03/14 00:42:37;;;;;;;12.73;8.48;;;9.90;43.90;;;;;;7377241;19;20041;-72
2024/03/14 00:45:09;;;;;;;14.15;8.63;;;9.90;53.60;;;;;;7377532;19;20006;-71
2024/03/14 00:47:39;;;;;;;12.55;8.65;;;9.90;59.80;;;;;;7378180;19;20414;-72
2024/03/14 00:50:11;;;;;;;14.55;9.32;;;9.80;67.70;;;;;;7378268;19;20018;-71
2024/03/14 00:52:41;;;;;;;11.75;9.55;;;9.90;77.40;;;;;;7370994;19;20118;-72
2024/03/14 00:55:11;;;;;;;13.43;9.38;;;9.90;77.30;;;;;;7374666;19;20010;-71
2024/03/14 00:57:44;;;;;;;14.57;10.05;;;9.90;84.00;;;;;;7377312;19;20015;-70
2024/03/14 01:00:15;;;;;;;14.07;10.45;;;9.90;87.80;;;;;;7376433;19;20021;-71
2024/03/14 01:02:46;;;;;;;14.00;9.88;;;9.90;90.00;;;;;;7375380;19;20006;-71
2024/03/14 01:05:16;;;;;;;14.00;10.38;;;9.80;90.50;;;;;;7374859;19;20861;-71
2024/03/14 01:07:47;;;;;;;14.90;11.15;;;9.70;92.30;;;;;;7372557;19;20090;-70
2024/03/14 01:10:18;;;;;;;16.48;11.38;;;9.70;98.70;;;;;;7376422;19;20010;-70
2024/03/14 01:12:50;;;;;;;16.38;11.60;;;9.70;99.90;;;;;;7376024;19;20006;-71
2024/03/14 01:15:22;;;;;;;17.02;11.98;;;9.70;99.90;;;;;;7374003;19;20021;-70
2024/03/14 01:17:54;;;;;;;16.35;11.80;;;9.60;99.90;;;;;;7375540;19;20011;-70
2024/03/14 01:20:24;;;;;;;15.50;11.57;;;9.60;99.90;;;;;;7375152;19;20082;-71
2024/03/14 01:22:54;;;;;;;16.05;11.98;;;9.60;99.90;;;;;;7375093;19;20010;-71
2024/03/14 01:25:24;;;;;;;17.13;11.93;;;9.60;99.90;;;;;;7374348;19;20010;-71
2024/03/14 01:27:57;;;;;;;18.27;10.95;;;9.60;99.90;;;;;;7375665;19;20025;-71
2024/03/14 01:30:27;;;;;;;16.02;12.07;;;9.60;99.90;;;;;;7375576;19;20006;-71
2024/03/14 01:32:58;;;;;;;17.48;12.10;;;9.60;99.90;;;;;;7375631;19;20007;-71
2024/03/14 01:35:29;;;;;;;14.73;11.55;;;9.60;99.90;;;;;;7372932;19;20014;-71
2024/03/14 01:37:59;;;;;;;16.48;11.45;;;9.60;99.90;;;;;;7373398;19;20062;-71
2024/03/14 01:40:31;;;;;;;18.52;12.10;;;9.60;99.90;;;;;;7374173;19;20028;-71
2024/03/14 01:43:03;;;;;;;13.60;10.63;;;9.60;99.90;;;;;;7374999;19;20505;-71
2024/03/14 01:45:33;;;;;;;16.15;11.02;;;9.60;99.90;;;;;;7373752;19;20006;-71
2024/03/14 01:48:05;;;;;;;16.58;11.13;;;9.50;99.90;;;;;;7375655;19;20085;-70
2024/03/14 01:50:35;;;;;;;15.98;10.70;;;9.50;99.90;;;;;;7375160;19;20017;-70
2024/03/14 01:53:05;;;;;;;12.73;10.05;;;9.50;99.90;;;;;;7373644;19;20450;-71
2024/03/14 01:55:36;;;;;;;13.82;10.07;;;9.50;99.90;;;;;;7373093;19;20026;-71
2024/03/14 01:58:12;;;;;;;14.70;10.43;;;9.50;99.90;;;;;;7375163;19;20019;-70
2024/03/14 02:00:53;;;;;;;16.70;10.52;;;9.50;99.90;;;;;;7373107;19;20785;-72
2024/03/14 02:03:24;;;;;;;13.15;10.57;;;9.50;99.90;;;;;;7373645;19;20011;-71
2024/03/14 02:06:04;;;;;;;14.57;10.55;;;9.50;99.90;;;;;;7372512;19;20014;-71
2024/03/14 02:08:34;;;;;;;11.10;9.32;;;9.60;99.90;;;;;;7374577;19;20007;-71
2024/03/14 02:11:04;;;;;;;13.05;9.98;;;9.50;99.90;;;;;;7374256;19;20074;-71
2024/03/14 02:13:37;;;;;;;13.25;9.50;;;9.50;99.90;;;;;;7373522;19;20077;-72
2024/03/14 02:16:08;;;;;;;12.73;9.82;;;9.50;99.90;;;;;;7373258;19;20496;-71
2024/03/14 02:18:38;;;;;;;13.25;9.90;;;9.50;99.90;;;;;;7374926;19;20352;-71
2024/03/14 02:21:08;;;;;;;12.73;9.05;;;9.40;99.90;;;;;;7381127;19;20067;-71
2024/03/14 02:23:41;;;;;;;12.70;8.95;;;9.40;99.90;;;;;;7381054;19;20007;-71
2024/03/14 02:26:11;;;;;;;15.02;8.88;;;9.40;99.90;;;;;;7377485;19;20540;-70
2024/03/14 02:28:41;;;;;;;12.18;8.68;;;9.30;99.90;;;;;;7379658;19;20125;-70
2024/03/14 02:31:11;;;;;;;11.00;8.98;;;9.30;99.90;;;;;;7380318;19;20017;-71
2024/03/14 02:33:41;;;;;;;11.10;8.10;;;9.30;99.90;;;;;;7380730;19;20343;-72
2024/03/14 02:36:11;;;;;;;11.75;8.13;;;9.30;99.90;;;;;;7377004;19;20396;-70
2024/03/14 02:38:44;;;;;;;11.07;8.93;;;9.30;99.90;;;;;;7379520;19;20015;-70
2024/03/14 02:41:14;;;;;;;13.07;8.18;;;9.20;99.90;;;;;;7381470;19;20086;-71
2024/03/14 02:43:44;;;;;;;13.20;9.65;;;9.30;99.90;;;;;;7380205;19;20014;-71
2024/03/14 02:46:14;;;;;;;11.43;9.18;;;9.20;99.90;;;;;;7379052;19;20486;-70
2024/03/14 02:48:44;;;;;;;13.35;9.02;;;9.20;99.90;;;;;;7379924;19;20006;-71
2024/03/14 02:51:15;;;;;;;12.25;8.55;;;9.10;99.90;;;;;;7380763;19;20079;-70
2024/03/14 02:53:48;;;;;;;12.20;8.77;;;9.10;99.90;;;;;;7380255;19;20014;-70
2024/03/14 02:56:18;;;;;;;9.38;8.10;;;9.10;99.90;;;;;;7378163;19;20015;-70
2024/03/14 02:58:49;;;;;;;9.85;8.13;;;9.10;99.90;;;;;;7379534;19;20070;-70
2024/03/14 03:01:19;;;;;;;10.75;8.20;;;9.00;99.90;;;;;;7378838;19;20003;-70
2024/03/14 03:03:49;;;;;;;12.70;8.60;;;8.90;99.90;;;;;;7379147;19;20015;-70
2024/03/14 03:06:19;;;;;;;9.98;8.40;;;8.90;99.90;;;;;;7378901;19;20018;-70
2024/03/14 03:08:52;;;;;;;11.98;8.93;;;8.80;99.90;;;;;;7377918;19;20007;-71
2024/03/14 03:11:25;;;;;;;9.65;8.10;;;8.90;99.90;;;;;;7378978;19;20412;-71
2024/03/14 03:13:56;;;;;;;12.43;8.77;;;8.80;99.90;;;;;;7376400;19;20070;-71
2024/03/14 03:16:26;;;;;;;12.95;8.55;;;8.80;99.90;;;;;;7378010;19;20006;-71
2024/03/14 03:18:58;;;;;;;11.18;8.75;;;8.80;99.90;;;;;;7378898;19;20010;-70
2024/03/14 03:21:30;;;;;;;11.07;8.43;;;8.80;99.90;;;;;;7378514;19;20751;-71
2024/03/14 03:24:00;;;;;;;13.68;9.05;;;8.80;99.90;;;;;;7379272;19;20358;-70
2024/03/14 03:26:30;;;;;;;12.40;9.15;;;8.80;99.90;;;;;;7376488;19;20786;-71
2024/03/14 03:28:57;;;;;;;13.60;8.98;;;8.80;99.90;;;;;;7377813;19;20010;-71
2024/03/14 03:31:28;;;;;;;10.77;9.27;;;8.70;99.90;;;;;;7377257;19;20502;-70
2024/03/14 03:33:58;;;;;;;11.15;8.93;;;8.80;99.90;;;;;;7379236;19;20416;-70
2024/03/14 03:36:26;;;;;;;9.75;8.05;;;8.70;99.90;;;;;;7376862;19;20010;-71
2024/03/14 03:38:56;;;;;;;11.13;8.90;;;8.70;99.90;;;;;;7378847;19;20477;-70
2024/03/14 03:41:29;;;;;;;14.98;9.57;;;8.70;99.90;;;;;;7378621;19;20006;-70
2024/03/14 03:44:00;;;;;;;13.13;9.93;;;8.70;99.90;;;;;;7374982;19;20397;-71
2024/03/14 03:46:28;;;;;;;12.50;9.50;;;8.70;99.90;;;;;;7377455;19;20018;-71
2024/03/14 03:48:58;;;;;;;12.13;10.05;;;8.70;99.90;;;;;;7378621;19;20023;-72
2024/03/14 03:51:25;;;;;;;13.65;9.38;;;8.70;99.90;;;;;;7378344;19;20010;-73
2024/03/14 03:53:55;;;;;;;11.43;9.82;;;8.70;99.90;;;;;;7377241;19;20356;-70
2024/03/14 03:56:25;;;;;;;11.95;10.07;;;8.70;99.90;;;;;;7376747;19;20014;-70
2024/03/14 03:58:55;;;;;;;13.60;10.15;;;8.70;99.90;;;;;;7378243;19;20011;-70
2024/03/14 04:01:27;;;;;;;15.88;11.55;;;8.70;99.90;;;;;;7375031;19;20014;-70
2024/03/14 04:03:57;;;;;;;14.80;11.90;;;8.70;99.90;;;;;;7378176;19;20025;-71
2024/03/14 04:06:27;;;;;;;17.50;12.32;;;8.60;99.90;;;;;;7377276;19;20412;-70
2024/03/14 04:08:55;;;;;;;15.07;12.10;;;8.60;99.90;;;;;;7378013;19;20014;-70
2024/03/14 04:11:25;;;;;;;21.02;12.80;;;8.60;99.90;;;;;;7377794;19;20035;-71
2024/03/14 04:13:55;;;;;;;15.90;13.20;;;8.60;99.90;;;;;;7378233;19;20855;-70
2024/03/14 04:16:28;;;;;;;14.77;12.60;;;8.60;99.90;;;;;;7377224;19;20242;-70
2024/03/14 04:18:58;;;;;;;20.55;15.32;;;8.60;99.90;;;;;;7378348;19;20011;-70
2024/03/14 04:21:29;;;;;;;21.88;15.23;;;8.60;99.90;;;;;;7378225;19;20351;-70
2024/03/14 04:24:01;;;;;;;19.45;13.82;;;8.50;99.90;;;;;;7378867;19;20010;-70
2024/03/14 04:26:31;;;;;;;17.55;13.75;;;8.50;99.90;;;;;;7375990;19;20014;-70
2024/03/14 04:29:06;;;;;;;23.05;13.65;;;8.50;99.90;;;;;;7377093;19;20060;-71
2024/03/14 04:31:36;;;;;;;17.17;14.93;;;8.50;99.90;;;;;;7377317;19;20010;-70
2024/03/14 04:34:06;;;;;;;17.08;15.15;;;8.50;99.90;;;;;;7376876;19;20006;-70
2024/03/14 04:36:37;;;;;;;18.33;14.25;;;8.60;99.90;;;;;;7372240;19;20035;-71
2024/03/14 04:39:09;;;;;;;17.08;14.73;;;8.50;99.90;;;;;;7376648;19;20010;-70
2024/03/14 04:41:39;;;;;;;15.90;14.23;;;8.40;99.90;;;;;;7376357;19;20021;-71
2024/03/14 04:44:12;;;;;;;16.85;14.13;;;8.40;99.90;;;;;;7378603;19;20399;-71
2024/03/14 04:46:42;;;;;;;18.40;13.50;;;8.40;99.90;;;;;;7377126;19;20029;-70
2024/03/14 04:49:12;;;;;;;17.23;13.35;;;8.40;99.90;;;;;;7378488;19;20118;-71
2024/03/14 04:51:42;;;;;;;18.35;13.23;;;8.40;99.90;;;;;;7378588;19;20034;-70
2024/03/14 04:54:14;;;;;;;15.55;12.23;;;8.40;99.90;;;;;;7379042;19;20006;-70
2024/03/14 04:56:45;;;;;;;17.05;12.27;;;8.40;99.90;;;;;;7375403;19;20015;-69
2024/03/14 04:59:20;;;;;;;15.05;11.98;;;8.30;99.90;;;;;;7377347;19;20078;-70
2024/03/14 05:01:50;;;;;;;16.88;11.93;;;8.40;99.90;;;;;;7378169;19;20031;-71
2024/03/14 05:04:21;;;;;;;14.70;11.50;;;8.30;99.90;;;;;;7377726;19;20014;-72
2024/03/14 05:06:51;;;;;;;15.30;12.25;;;8.30;99.90;;;;;;7374977;19;20089;-71
2024/03/14 05:09:22;;;;;;;14.10;11.00;;;8.30;99.90;;;;;;7377302;19;20018;-72
2024/03/14 05:11:52;;;;;;;17.48;12.07;;;8.30;99.90;;;;;;7377511;19;20014;-70
2024/03/14 05:14:26;;;;;;;17.60;11.02;;;8.20;99.90;;;;;;7378443;19;20010;-70
2024/03/14 05:16:56;;;;;;;13.30;10.52;;;8.20;99.90;;;;;;7376010;19;20031;-70
2024/03/14 05:19:26;;;;;;;13.93;11.23;;;8.20;99.90;;;;;;7372633;19;20010;-70
2024/03/14 05:21:58;;;;;;;14.85;10.57;;;8.10;99.90;;;;;;7377269;19;20082;-71
2024/03/14 05:24:28;;;;;;;13.05;10.15;;;8.10;99.90;;;;;;7377111;19;20010;-71
2024/03/14 05:26:59;;;;;;;16.98;11.70;;;8.10;99.90;;;;;;7373993;19;20011;-71
2024/03/14 05:29:32;;;;;;;12.88;10.70;;;8.10;99.90;;;;;;7375446;19;20011;-70
2024/03/14 05:32:02;;;;;;;16.05;11.63;;;8.10;99.90;;;;;;7377045;19;20014;-70
2024/03/14 05:34:32;;;;;;;13.68;9.80;;;8.10;99.90;;;;;;7375930;19;20011;-69
2024/03/14 05:37:02;;;;;;;13.88;10.25;;;8.10;99.90;;;;;;7376513;19;20031;-71
2024/03/14 05:39:32;;;;;;;13.95;10.40;;;8.10;99.90;;;;;;7373452;19;20014;-71
2024/03/14 05:42:02;;;;;;;15.25;10.35;;;8.10;99.90;;;;;;7373593;19;20697;-70
2024/03/14 05:44:37;;;;;;;16.10;10.45;;;8.20;99.90;;;;;;7375306;19;20098;-71
2024/03/14 05:47:09;;;;;;;15.10;10.20;;;8.10;99.90;;;;;;7374224;19;20006;-70
2024/03/14 05:49:39;;;;;;;12.02;9.70;;;8.10;99.90;;;;;;7376140;19;20384;-71
2024/03/14 05:52:10;;;;;;;23.95;9.95;;;8.10;99.90;;;;;;7375865;19;20470;-71
2024/03/14 05:54:42;;;;;;;12.95;9.27;;;8.10;99.90;;;;;;7381560;19;20010;-69
2024/03/14 05:57:12;;;;;;;12.52;10.02;;;8.10;99.90;;;;;;7381236;19;20498;-69
2024/03/14 05:59:45;;;;;;;11.75;9.32;;;8.00;99.90;;;;;;7381424;19;20018;-69
2024/03/14 06:02:16;;;;;;;15.50;9.40;;;8.00;99.90;;;;;;7383427;19;20015;-69
2024/03/14 06:04:46;;;;;;;13.98;9.75;;;8.00;99.90;;;;;;7378538;19;20010;-70
2024/03/14 06:07:17;;;;;;;13.23;9.52;;;8.00;99.90;;;;;;7380772;19;20006;-70
2024/03/14 06:09:50;;;;;;;;;;;8.00;99.90;;;;;;7382495;19;20014;-70
2024/03/14 06:12:21;;;;;;;14.00;9.23;;;8.00;99.90;;;;;;7381343;19;19918;-70
2024/03/14 06:14:54;;;;;;;16.20;10.23;;;8.00;99.90;;;;;;7381993;19;20022;-70
2024/03/14 06:17:25;;;;;;;12.07;9.85;;;8.00;99.90;;;;;;7379479;19;20085;-70
2024/03/14 06:19:57;;;;;;;13.27;9.63;;;8.00;99.90;;;;;;7380957;19;20498;-71
2024/03/14 06:22:27;;;;;;;12.13;9.05;;;8.00;99.90;;;;;;7380901;19;20106;-71
2024/03/14 06:24:57;;;;;;;12.75;9.88;;;8.00;99.00;;;;;;7381967;19;20031;-71
2024/03/14 06:27:27;;;;;;;15.80;9.98;;;8.00;95.50;;;;;;7380796;19;20022;-70
2024/03/14 06:29:59;;;;;;;12.27;9.10;;;8.00;94.40;;;;;;7381923;19;20035;-69
2024/03/14 06:32:30;;;;;;;14.00;9.82;;;8.00;92.80;;;;;;7381761;19;20010;-69
2024/03/14 06:35:00;;;;;;;14.73;9.40;;;8.00;91.60;;;;;;7379953;19;20078;-71
2024/03/14 06:37:30;;;;;;;14.02;9.00;;;8.00;76.20;;;;;;7381753;19;20014;-68
2024/03/14 06:40:00;;;;;;;12.48;8.70;;;8.00;76.80;;;;;;7380807;19;20011;-70
2024/03/14 06:42:30;;;;;;;13.93;8.48;;;8.10;71.10;;;;;;7383755;19;20078;-71
2024/03/14 06:45:03;;;;;;;11.23;9.27;;;8.00;64.60;;;;;;7381824;19;20024;-70
2024/03/14 06:47:34;;;;;;;13.07;9.80;;;8.10;61.90;;;;;;7377409;19;20025;-69
2024/03/14 06:50:05;;;;;;;14.80;10.52;;;8.20;53.80;;;;;;7394640;19;20114;-70
2024/03/14 06:52:35;;;;;;;16.30;11.32;;;8.30;52.00;;;;;;7398613;19;20466;-70
2024/03/14 06:55:07;;;;;;;14.20;10.52;;;8.30;43.00;;;;;;7397375;19;20019;-70
2024/03/14 06:57:39;;;;;;;16.17;12.23;;;8.20;35.70;;;;;;7399298;19;20006;-70
2024/03/14 07:00:16;;;;;;;14.52;11.02;;;8.40;39.60;;;;;;7381695;19;20015;-70
2024/03/14 07:02:48;;;;;;;18.83;12.32;;;8.40;24.60;;;;;;7383559;19;20545;-69
2024/03/14 07:05:19;;;;;;;16.17;12.20;;;8.50;21.50;;;;;;7385660;19;20023;-69
2024/03/14 07:07:49;;;;;;;16.42;12.27;;;8.60;18.90;;;;;;7386941;19;20313;-70
2024/03/14 07:10:19;;;;;;;14.77;11.55;;;8.60;11.10;;;;;;7379733;19;20067;-69
2024/03/14 07:12:50;;;;;;;16.52;11.80;;;8.60;6.80;;;;;;7381288;19;20014;-69
2024/03/14 07:15:22;;;;;;;15.55;12.38;;;8.70;6.80;;;;;;7380274;19;20010;-69
2024/03/14 07:17:58;;;;;;;16.67;12.20;;;8.60;1.00;;;;;;7381221;19;20443;-74
2024/03/14 07:20:33;;;;;;;17.90;12.65;;;8.90;3.80;;;;;;7378005;19;20047;-71
2024/03/14 07:23:03;;;;;;;18.00;12.90;;;9.00;1.60;;;;;;7381287;19;20025;-70
2024/03/14 07:25:33;;;;;;;18.08;13.02;;;9.10;1.00;;;;;;7379911;19;20035;-71
2024/03/14 07:28:09;;;;;;;20.90;12.95;;;9.00;1.00;;;;;;7380260;19;20119;-70
2024/03/14 07:30:42;;;;;;;17.67;13.07;;;9.10;1.00;;;;;;7380265;19;20002;-69
2024/03/14 07:33:12;;;;;;;18.80;12.65;;;9.10;1.00;;;;;;7380885;19;20485;-70
2024/03/14 07:35:45;;;;;;;17.85;13.60;;;9.20;1.00;;;;;;7376420;19;20014;-70
2024/03/14 07:38:15;;;;;;;20.02;13.07;;;9.10;1.00;;;;;;7379166;19;20336;-70
2024/03/14 07:40:46;;;;;;;17.38;12.45;;;9.30;1.00;;;;;;7379952;19;20010;-70
2024/03/14 07:43:16;;;;;;;19.58;12.95;;;9.30;1.00;;;;;;7379782;19;20024;-70
2024/03/14 07:45:49;;;;;;;16.20;12.27;;;9.30;1.00;;;;;;7379036;19;20026;-70
2024/03/14 07:48:21;;;;;;;22.45;12.15;;;9.40;1.00;;;;;;7378868;19;20044;-70
2024/03/14 07:50:52;;;;;;;16.50;12.23;;;9.40;1.00;;;;;;7375683;19;20077;-70
2024/03/14 07:53:22;;;;;;;16.27;12.82;;;9.40;1.00;;;;;;7378700;19;20039;-70
2024/03/14 07:55:52;;;;;;;19.05;13.90;;;9.50;1.00;;;;;;7375359;19;20011;-71
2024/03/14 07:58:22;;;;;;;21.10;13.15;;;9.40;1.00;;;;;;7380069;19;20039;-71
2024/03/14 08:00:55;;;;;;;20.10;13.20;;;9.40;1.00;;;;;;7378163;19;20014;-71
2024/03/14 08:03:28;;;;;;;17.40;12.77;;;9.50;1.00;;;;;;7374135;19;20452;-71
2024/03/14 08:05:59;;;;;;;20.05;13.68;;;9.50;1.00;;;;;;7374200;19;20010;-70
2024/03/14 08:08:30;;;;;;;20.27;13.10;;;9.60;1.00;;;;;;7375844;19;20799;-70
2024/03/14 08:11:00;;;;;;;22.25;14.15;;;9.70;1.00;;;;;;7377191;19;20018;-70
2024/03/14 08:13:33;;;;;;;21.50;13.88;;;9.80;1.00;;;;;;7380730;19;20007;-70
2024/03/14 08:16:14;;;;;;;15.88;12.60;;;10.00;1.00;;;;;;7373246;19;20324;-69
2024/03/14 08:18:46;;;;;;;17.25;13.02;;;10.10;1.00;;;;;;7376373;19;20014;-70
2024/03/14 08:21:17;;;;;;;15.95;12.45;;;10.00;1.00;;;;;;7374244;19;20031;-70
2024/03/14 08:23:48;;;;;;;16.40;12.45;;;9.90;1.00;;;;;;7377392;19;20019;-70
2024/03/14 08:26:19;;;;;;;15.43;12.32;;;10.10;1.00;;;;;;7377168;19;20015;-70
2024/03/14 08:28:54;;;;;;;16.27;12.30;;;10.30;1.00;;;;;;7377093;19;20010;-70
2024/03/14 08:31:27;;;;;;;17.98;12.88;;;10.40;1.00;;;;;;7378503;19;20007;-70
2024/03/14 08:33:58;;;;;;;15.80;12.02;;;10.60;1.00;;;;;;7378418;19;20014;-70
2024/03/14 08:36:30;;;;;;;18.38;12.15;;;10.80;1.00;;;;;;7378287;19;20038;-72
2024/03/14 08:39:00;;;;;;;16.58;12.15;;;10.70;1.00;;;;;;7379187;19;20007;-71
2024/03/14 08:41:32;;;;;;;21.40;12.15;;;10.60;1.00;;;;;;7377521;19;20006;-70
2024/03/14 08:44:05;;;;;;;18.17;12.75;;;10.70;1.00;;;;;;7377939;19;20011;-70
2024/03/14 08:46:37;;;;;;;17.17;12.43;;;11.00;1.00;;;;;;7373577;19;20043;-70
2024/03/14 08:49:07;;;;;;;13.63;10.68;;;10.90;1.00;;;;;;7375750;19;20023;-70
2024/03/14 08:51:38;;;;;;;15.88;11.68;;;11.10;1.00;;;;;;7375313;19;20017;-71
2024/03/14 08:54:28;;;;;;;13.32;10.27;;;11.10;1.00;;;;;;7375789;19;20023;-70
2024/03/14 08:56:59;;;;;;;14.70;10.73;;;11.20;1.00;;;;;;7371569;19;20036;-71
2024/03/14 08:59:35;;;;;;;18.30;11.07;;;11.30;1.00;;;;;;7374175;19;20382;-71
2024/03/14 09:02:09;;;;;;;14.68;11.15;;;11.30;1.00;;;;;;7375633;19;20459;-70
2024/03/14 09:04:44;;;;;;;14.80;11.20;;;11.50;1.00;;;;;;7374597;19;20011;-73
2024/03/14 09:07:14;;;;;;;15.73;10.05;;;11.40;1.00;;;;;;7371309;19;20015;-71
2024/03/14 09:09:44;;;;;;;14.20;10.25;;;11.80;1.00;;;;;;7375866;19;20074;-70
2024/03/14 09:12:22;;;;;;;13.07;10.07;;;11.80;1.00;;;;;;7374712;19;20459;-70
2024/03/14 09:14:54;;;;;;;12.82;10.07;;;11.70;1.00;;;;;;7376713;19;20014;-70
2024/03/14 09:17:27;;;;;;;11.98;9.55;;;11.80;1.00;;;;;;7373766;19;20026;-71
2024/03/14 09:19:57;;;;;;;11.13;8.68;;;11.90;1.00;;;;;;7375258;19;20035;-71
2024/03/14 09:22:27;;;;;;;11.30;8.63;;;12.00;1.00;;;;;;7374878;19;20002;-71
2024/03/14 09:25:01;;;;;;;11.70;8.77;;;12.00;1.00;;;;;;7374660;19;20485;-71
2024/03/14 09:27:32;;;;;;;10.52;8.40;;;12.10;1.00;;;;;;7374143;19;20019;-71
2024/03/14 09:30:08;;;;;;;11.75;7.90;;;12.40;1.00;;;;;;7380122;19;20011;-71
2024/03/14 09:32:41;;;;;;;11.45;8.38;;;12.20;1.00;;;;;;7382012;19;20217;-69
2024/03/14 09:35:15;;;;;;;12.98;8.43;;;12.30;1.00;;;;;;7379766;19;20028;-69
2024/03/14 09:37:47;;;;;;;;;;;12.60;1.00;;;;;;7381749;19;20748;-70
2024/03/14 09:40:20;;;;;;;11.85;8.68;;;12.70;1.00;;;;;;7380014;19;19919;-71
2024/03/14 09:42:57;;;;;;;9.48;8.00;;;12.90;1.00;;;;;;7381471;19;20039;-70
2024/03/14 09:45:28;;;;;;;10.20;7.65;;;13.00;1.00;;;;;;7380654;19;20517;-70
2024/03/14 09:48:02;;;;;;;9.60;7.32;;;13.10;1.00;;;;;;7382844;19;20094;-71
2024/03/14 09:50:32;;;;;;;8.68;7.25;;;13.30;1.00;;;;;;7381344;19;20003;-70
2024/03/14 09:53:02;;;;;;;12.48;6.07;;;13.50;1.00;;;;;;7380813;19;20027;-70
2024/03/14 09:55:38;;;;;;;8.32;6.10;;;13.70;1.00;;;;;;7380069;19;20015;-71
2024/03/14 09:58:09;;;;;;;8.82;6.38;;;13.50;1.00;;;;;;7378085;19;20036;-71
2024/03/14 10:00:39;;;;;;;9.20;6.35;;;13.60;1.00;;;;;;7378073;19;20081;-71
2024/03/14 10:03:14;;;;;;;7.15;5.93;;;13.70;1.00;;;;;;7381284;19;20011;-70
2024/03/14 10:05:44;;;;;;;9.23;5.10;;;13.80;1.00;;;;;;7380333;19;20423;-70
2024/03/14 10:08:16;;;;;;;6.25;5.07;;;13.90;1.00;;;;;;7381012;19;20014;-70
2024/03/14 10:10:46;;;;;;;6.82;5.35;;;13.90;1.00;;;;;;7381624;19;20490;-71
2024/03/14 10:13:28;;;;;;;11.30;5.90;;;13.70;1.00;;;;;;7381616;19;20457;-70
2024/03/14 10:15:58;;;;;;;6.80;5.65;;;14.10;1.00;;;;;;7380018;19;20007;-71
2024/03/14 10:18:32;;;;;;;8.50;5.18;;;14.30;1.00;;;;;;7381162;19;20021;-70
2024/03/14 10:21:05;;;;;;;;;;;13.80;1.00;;;;;;7381689;19;20017;-70
2024/03/14 10:23:35;;;;;;;6.85;5.00;;;14.00;1.00;;;;;;7384053;19;19925;-69
2024/03/14 10:26:09;;;;;;;5.85;5.25;;;13.70;1.00;;;;;;7380726;19;20041;-71
2024/03/14 10:28:39;;;;;;;8.55;5.60;;;13.80;1.00;;;;;;7379429;19;20015;-70
2024/03/14 10:31:10;;;;;;;6.57;4.93;;;13.70;1.00;;;;;;7380172;19;20006;-70
2024/03/14 10:33:43;;;;;;;6.93;4.70;;;14.00;1.00;;;;;;7381119;19;20015;-70
2024/03/14 10:36:14;;;;;;;7.28;4.70;;;14.20;1.00;;;;;;7379665;19;20010;-71
2024/03/14 10:38:44;;;;;;;6.45;4.90;;;14.20;1.00;;;;;;7380283;19;20011;-71
2024/03/14 10:41:17;;;;;;;8.07;5.22;;;14.30;1.00;;;;;;7379108;19;20347;-70
2024/03/14 10:43:57;;;;;;;5.13;4.43;;;14.30;1.00;;;;;;7381219;19;20010;-71
2024/03/14 10:46:30;;;;;;;6.82;4.88;;;14.30;1.00;;;;;;7378105;19;20030;-71
2024/03/14 10:49:03;;;;;;;5.70;4.40;;;14.60;1.00;;;;;;7381382;19;20340;-71
2024/03/14 10:51:34;;;;;;;6.57;4.63;;;14.30;1.00;;;;;;7380388;19;20480;-70
2024/03/14 10:54:07;;;;;;;7.45;4.35;;;14.30;1.00;;;;;;7380393;19;20018;-72
2024/03/14 10:56:39;;;;;;;6.93;3.90;;;14.50;1.00;;;;;;7380792;19;20050;-70
2024/03/14 10:59:16;;;;;;;4.45;3.55;;;14.40;1.00;;;;;;7379022;19;20011;-70
2024/03/14 11:01:50;;;;;;;9.65;4.45;;;14.30;1.00;;;;;;7379632;19;20441;-70
2024/03/14 11:04:23;;;;;;;6.65;4.63;;;14.30;1.00;;;;;;7379965;19;20010;-69
2024/03/14 11:06:57;;;;;;;5.47;4.03;;;14.00;1.00;;;;;;7378723;19;20018;-71
2024/03/14 11:09:29;;;;;;;8.20;4.20;;;14.30;1.00;;;;;;7379271;19;20025;-70
2024/03/14 11:12:03;;;;;;;6.82;4.20;;;14.60;1.00;;;;;;7379365;19;20471;-70
2024/03/14 11:14:39;;;;;;;5.35;3.60;;;14.60;1.00;;;;;;7379518;19;20048;-70
2024/03/14 11:17:14;;;;;;;5.85;3.65;;;14.70;1.00;;;;;;7380046;19;20017;-71
2024/03/14 11:19:48;;;;;;;;;;;14.90;1.00;;;;;;7377784;19;20015;-71
2024/03/14 11:22:21;;;;;;;4.15;3.17;;;14.90;1.00;;;;;;7379261;19;19944;-71
2024/03/14 11:24:55;;;;;;;4.00;3.08;;;15.30;1.00;;;;;;7378739;19;20125;-70
2024/03/14 11:27:28;;;;;;;3.53;3.22;;;14.70;1.00;;;;;;7378892;19;20024;-70
2024/03/14 11:29:59;;;;;;;3.47;3.05;;;14.60;1.00;;;;;;7378059;19;20097;-71
2024/03/14 11:32:33;;;;;;;5.07;3.00;;;14.70;1.00;;;;;;7377171;19;20010;-71
2024/03/14 11:35:36;;;;;;;4.13;3.13;;;14.80;1.00;;;;;;7376188;19;20035;-70
2024/03/14 11:38:32;;;;;;;5.05;2.92;;;14.70;1.00;;;;;;6866451;19;2004765;-71
2024/03/14 11:41:06;;;;;;;5.97;3.28;;;14.70;1.00;;;;;;6867119;19;2004050;-69
2024/03/14 11:43:36;;;;;;;3.78;3.08;;;15.00;1.00;;;;;;7377640;19;20015;-71
2024/03/14 11:46:09;;;;;;;3.45;2.65;;;15.30;1.00;;;;;;7376284;19;20506;-72
2024/03/14 11:48:42;;;;;;;4.80;3.15;;;15.10;1.00;;;;;;7378763;19;20032;-71
2024/03/14 11:51:18;;;;;;;3.72;2.60;;;15.30;1.00;;;;;;7378979;19;20021;-70
2024/03/14 11:53:51;;;;;;;3.92;2.35;;;15.50;1.00;;;;;;7377462;19;20010;-70
2024/03/14 11:56:25;;;;;;;2.30;1.90;;;15.30;1.00;;;;;;7375754;19;20010;-70
2024/03/14 11:58:56;;;;;;;4.25;2.30;;;15.30;1.00;;;;;;7379298;19;20406;-70
2024/03/14 12:01:29;;;;;;;5.68;2.40;;;15.60;1.00;;;;;;7378818;19;20011;-70
2024/03/14 12:04:17;;;;;;;5.10;2.50;;;15.90;1.00;;;;;;6866517;19;2004575;-71
2024/03/14 12:06:50;;;;;;;4.68;2.50;;;15.80;1.00;;;;;;7377000;19;20546;-70
2024/03/14 12:09:25;;;;;;;7.75;2.53;;;16.10;1.00;;;;;;7378116;19;20371;-70
2024/03/14 12:11:55;;;;;;;;;;;15.50;1.00;;;;;;7378142;19;21401;-71
2024/03/14 12:14:26;;;;;;;2.92;2.08;;;15.70;1.00;;;;;;7377258;19;19926;-70
2024/03/14 12:16:56;;;;;;;2.80;2.20;;;15.90;1.00;;;;;;7376417;19;20014;-71
2024/03/14 12:19:26;;;;;;;4.53;1.70;;;15.60;1.00;;;;;;7376974;19;20117;-71
2024/03/14 12:22:02;;;;;;;2.00;1.80;;;15.30;1.00;;;;;;7377592;19;20028;-72
2024/03/14 12:24:32;;;;;;;2.58;1.77;;;15.70;1.00;;;;;;7377665;19;20034;-71
2024/03/14 12:27:03;;;;;;;2.55;2.08;;;15.60;1.00;;;;;;7377203;19;20463;-69
2024/03/14 12:29:34;;;;;;;3.65;1.95;;;15.90;1.00;;;;;;7377331;19;20071;-70
2024/03/14 12:32:04;;;;;;;2.40;1.70;;;16.20;1.00;;;;;;7377243;19;20022;-71
2024/03/14 12:34:35;;;;;;;3.20;1.55;;;16.10;1.00;;;;;;7376674;19;20002;-71
2024/03/14 12:37:12;;;;;;;2.00;1.63;;;16.00;1.00;;;;;;7377542;19;20014;-70
2024/03/14 12:39:50;;;;;;;2.53;1.35;;;16.10;1.00;;;;;;7375291;19;20025;-70
2024/03/14 12:42:20;;;;;;;2.00;1.48;;;16.40;1.00;;;;;;7377475;19;20014;-71
2024/03/14 12:44:50;;;;;;;4.65;1.63;;;16.30;1.00;;;;;;7376983;19;20158;-71
2024/03/14 12:47:21;;;;;;;1.60;1.20;;;16.50;1.00;;;;;;7375421;19;20007;-71
2024/03/14 12:49:51;;;;;;;1.52;1.25;;;16.50;1.00;;;;;;7378017;19;20007;-71
2024/03/14 12:52:24;;;;;;;1.67;1.15;;;16.50;1.00;;;;;;7376864;19;20029;-71
2024/03/14 12:54:54;;;;;;;1.55;1.27;;;16.60;1.00;;;;;;7377501;19;20014;-71
2024/03/14 12:57:24;;;;;;;1.73;1.30;;;16.30;1.00;;;;;;7373669;19;20010;-70
2024/03/14 12:59:55;;;;;;;1.70;1.20;;;16.60;1.00;;;;;;7374691;19;20363;-71
2024/03/14 13:02:25;;;;;;;1.40;1.15;;;16.80;1.00;;;;;;7373828;19;20049;-71
2024/03/14 13:04:55;;;;;;;3.45;1.42;;;16.80;1.00;;;;;;7375426;19;20014;-71
2024/03/14 13:07:28;;;;;;;1.35;1.05;;;16.90;1.00;;;;;;7375834;19;20003;-72
2024/03/14 13:10:15;;;;;;;1.88;1.20;;;16.70;1.00;;;;;;7375565;19;20036;-72
2024/03/14 13:13:00;;;;;;;2.70;1.48;;;16.60;1.00;;;;;;7373702;19;20408;-70